Accueil
METAR-TAF:

METAR-TAF

Aéroports :

Nouméa, Nouvelle-Calédonie

Aéroport de Magenta

latitude: 22-15-30S, longitude: 166-28-22E, altitude: 3 m

METAR: absent

Heure: 21:27 (10:27 UTC)

Prévision

Le bulletin a été fait il y a 17 heures et 27 minutes, à 17:00 UTC
Prévision valable du 20 à 18 UTC au 21 à 18 UTC
Vent 6 kt de est/sud-est
Visibilité 10 km ou plus
Quelques nuages à une hauteur de 3500 ft
Nuages épars à une hauteur de 6000 ft
Evoluant progressivement
du 20 à 22 UTC au 20 à 24 UTC
Vent 16 kt de est/sud-est
Evoluant progressivement
du 21 à 07 UTC au 21 à 09 UTC
Vent 6 kt de est/nord-est

TAF: NWWM 201700Z 2018/2118 11006KT 9999 FEW035 SCT060 BECMG 2022/2024 12016KT BECMG 2107/2109 06006KT

Observations et prévisions météorologiques de plus de 4000 aéroports (messages METAR et TAF).

Les stations disponibles sont représentées par des disques jaunes et rouges sur la carte.

Passer la souris dessus pour voir le nom de la station.

Cliquer dessus pour voir les observations et prévisions météorologiques.

Pour changer de carte: cliquez sur les boutons verts avec une croix noire pour zoomer, sur le bouton vert avec un tiret pour effectuer un zoom arrière, ou sur les flèches vertes pour les cartes adjacentes.


METAR-TAF: